sensor_id;sensor_type;location;lat;lon;timestamp;pressure;altitude;pressure_sealevel;temperature;humidity
66945;BME280;53853;51.982;5.928;2023-04-30T00:02:16;102273.78;;;9.71;72.16
66945;BME280;53853;51.982;5.928;2023-04-30T00:04:46;102264.19;;;9.68;71.98
66945;BME280;53853;51.982;5.928;2023-04-30T00:07:15;102271.22;;;9.69;71.89
66945;BME280;53853;51.982;5.928;2023-04-30T00:09:45;102266.13;;;9.66;72.06
66945;BME280;53853;51.982;5.928;2023-04-30T00:12:16;102272.50;;;9.64;72.41
66945;BME280;53853;51.982;5.928;2023-04-30T00:14:49;102282.31;;;9.63;72.44
66945;BME280;53853;51.982;5.928;2023-04-30T00:17:22;102290.50;;;9.60;72.55
66945;BME280;53853;51.982;5.928;2023-04-30T00:19:52;102287.22;;;9.56;72.79
66945;BME280;53853;51.982;5.928;2023-04-30T00:22:22;102283.78;;;9.54;72.86
66945;BME280;53853;51.982;5.928;2023-04-30T00:24:51;102290.19;;;9.52;72.88
66945;BME280;53853;51.982;5.928;2023-04-30T00:27:21;102285.09;;;9.49;72.96
66945;BME280;53853;51.982;5.928;2023-04-30T00:29:54;102283.59;;;9.45;73.22
66945;BME280;53853;51.982;5.928;2023-04-30T00:32:23;102282.94;;;9.41;73.26
66945;BME280;53853;51.982;5.928;2023-04-30T00:34:53;102282.22;;;9.39;73.50
66945;BME280;53853;51.982;5.928;2023-04-30T00:37:23;102277.22;;;9.34;73.45
66945;BME280;53853;51.982;5.928;2023-04-30T00:39:53;102277.22;;;9.34;73.47
66945;BME280;53853;51.982;5.928;2023-04-30T00:42:23;102283.59;;;9.32;73.38
66945;BME280;53853;51.982;5.928;2023-04-30T00:44:55;102284.63;;;9.29;73.56
66945;BME280;53853;51.982;5.928;2023-04-30T00:47:25;102289.22;;;9.27;73.60
66945;BME280;53853;51.982;5.928;2023-04-30T00:49:55;102283.28;;;9.23;73.69
66945;BME280;53853;51.982;5.928;2023-04-30T00:52:25;102279.75;;;9.23;73.75
66945;BME280;53853;51.982;5.928;2023-04-30T00:54:55;102281.44;;;9.24;73.64
66945;BME280;53853;51.982;5.928;2023-04-30T00:57:26;102290.38;;;9.23;73.54
66945;BME280;53853;51.982;5.928;2023-04-30T00:59:59;102288.59;;;9.23;73.53
66945;BME280;53853;51.982;5.928;2023-04-30T01:02:30;102297.50;;;9.22;73.44
66945;BME280;53853;51.982;5.928;2023-04-30T01:05:00;102296.78;;;9.20;73.57
66945;BME280;53853;51.982;5.928;2023-04-30T01:07:31;102296.88;;;9.19;73.90
66945;BME280;53853;51.982;5.928;2023-04-30T01:10:01;102286.25;;;9.19;73.97
66945;BME280;53853;51.982;5.928;2023-04-30T01:12:38;102290.72;;;9.18;73.95
66945;BME280;53853;51.982;5.928;2023-04-30T01:15:21;102290.81;;;9.17;73.65
66945;BME280;53853;51.982;5.928;2023-04-30T01:17:55;102294.44;;;9.16;73.88
66945;BME280;53853;51.982;5.928;2023-04-30T01:20:29;102300.69;;;9.15;73.68
66945;BME280;53853;51.982;5.928;2023-04-30T01:23:10;102295.47;;;9.13;73.81
66945;BME280;53853;51.982;5.928;2023-04-30T01:25:58;102299.22;;;9.11;73.85
66945;BME280;53853;51.982;5.928;2023-04-30T01:28:35;102300.28;;;9.08;73.92
66945;BME280;53853;51.982;5.928;2023-04-30T01:31:14;102293.34;;;9.05;73.99
66945;BME280;53853;51.982;5.928;2023-04-30T01:33:46;102287.28;;;9.03;74.08
66945;BME280;53853;51.982;5.928;2023-04-30T01:36:26;102285.59;;;9.02;74.42
66945;BME280;53853;51.982;5.928;2023-04-30T01:39:14;102288.47;;;8.99;74.36
66945;BME280;53853;51.982;5.928;2023-04-30T01:41:53;102280.59;;;8.98;74.29
66945;BME280;53853;51.982;5.928;2023-04-30T01:44:48;102283.44;;;8.95;74.28
66945;BME280;53853;51.982;5.928;2023-04-30T01:47:28;102286.13;;;8.95;74.21
66945;BME280;53853;51.982;5.928;2023-04-30T01:50:11;102291.63;;;8.92;74.25
66945;BME280;53853;51.982;5.928;2023-04-30T01:52:46;102284.50;;;8.92;74.38
66945;BME280;53853;51.982;5.928;2023-04-30T01:55:21;102291.84;;;8.88;74.53
66945;BME280;53853;51.982;5.928;2023-04-30T01:57:56;102295.44;;;8.87;74.54
66945;BME280;53853;51.982;5.928;2023-04-30T02:00:30;102301.81;;;8.85;74.75
66945;BME280;53853;51.982;5.928;2023-04-30T02:03:00;102302.78;;;8.84;74.30
66945;BME280;53853;51.982;5.928;2023-04-30T02:05:30;102300.53;;;8.78;74.81
66945;BME280;53853;51.982;5.928;2023-04-30T02:08:00;102314.00;;;8.75;74.93
66945;BME280;53853;51.982;5.928;2023-04-30T02:10:30;102309.75;;;8.72;75.11
66945;BME280;53853;51.982;5.928;2023-04-30T02:13:00;102309.00;;;8.70;74.98
66945;BME280;53853;51.982;5.928;2023-04-30T02:15:33;102304.63;;;8.69;75.14
66945;BME280;53853;51.982;5.928;2023-04-30T02:18:03;102302.94;;;8.68;75.39
66945;BME280;53853;51.982;5.928;2023-04-30T02:20:32;102308.16;;;8.69;75.23
66945;BME280;53853;51.982;5.928;2023-04-30T02:23:02;102312.59;;;8.69;75.06
66945;BME280;53853;51.982;5.928;2023-04-30T02:25:32;102313.69;;;8.66;75.14
66945;BME280;53853;51.982;5.928;2023-04-30T02:28:04;102311.03;;;8.66;75.27
66945;BME280;53853;51.982;5.928;2023-04-30T02:30:36;102317.28;;;8.65;75.21
66945;BME280;53853;51.982;5.928;2023-04-30T02:33:06;102310.28;;;8.64;74.96
66945;BME280;53853;51.982;5.928;2023-04-30T02:35:39;102306.66;;;8.65;74.83
66945;BME280;53853;51.982;5.928;2023-04-30T02:38:09;102311.22;;;8.63;74.84
66945;BME280;53853;51.982;5.928;2023-04-30T02:40:40;102312.16;;;8.62;74.74
66945;BME280;53853;51.982;5.928;2023-04-30T02:43:10;102306.00;;;8.62;74.95
66945;BME280;53853;51.982;5.928;2023-04-30T02:45:43;102310.47;;;8.61;74.87
66945;BME280;53853;51.982;5.928;2023-04-30T02:48:12;102310.69;;;8.58;75.22
66945;BME280;53853;51.982;5.928;2023-04-30T02:50:42;102310.69;;;8.58;75.29
66945;BME280;53853;51.982;5.928;2023-04-30T02:53:12;102307.91;;;8.60;75.07
66945;BME280;53853;51.982;5.928;2023-04-30T02:55:42;102308.03;;;8.58;75.10
66945;BME280;53853;51.982;5.928;2023-04-30T02:58:12;102302.81;;;8.57;75.31
66945;BME280;53853;51.982;5.928;2023-04-30T03:00:44;102307.25;;;8.56;75.15
66945;BME280;53853;51.982;5.928;2023-04-30T03:03:15;102306.50;;;8.54;75.28
66945;BME280;53853;51.982;5.928;2023-04-30T03:05:44;102302.13;;;8.53;75.36
66945;BME280;53853;51.982;5.928;2023-04-30T03:08:14;102296.06;;;8.51;75.36
66945;BME280;53853;51.982;5.928;2023-04-30T03:10:44;102297.00;;;8.50;75.45
66945;BME280;53853;51.982;5.928;2023-04-30T03:13:14;102297.00;;;8.50;75.34
66945;BME280;53853;51.982;5.928;2023-04-30T03:15:46;102290.13;;;8.47;75.41
66945;BME280;53853;51.982;5.928;2023-04-30T03:18:16;102283.19;;;8.45;75.47
66945;BME280;53853;51.982;5.928;2023-04-30T03:20:46;102286.59;;;8.47;75.43
66945;BME280;53853;51.982;5.928;2023-04-30T03:23:16;102296.47;;;8.45;75.53
66945;BME280;53853;51.982;5.928;2023-04-30T03:25:46;102294.78;;;8.44;75.55
66945;BME280;53853;51.982;5.928;2023-04-30T03:28:17;102289.53;;;8.42;75.48
66945;BME280;53853;51.982;5.928;2023-04-30T03:30:51;102292.28;;;8.41;75.70
66945;BME280;53853;51.982;5.928;2023-04-30T03:33:21;102288.97;;;8.37;75.70
66945;BME280;53853;51.982;5.928;2023-04-30T03:35:51;102284.72;;;8.34;75.75
66945;BME280;53853;51.982;5.928;2023-04-30T03:38:21;102280.34;;;8.33;76.06
66945;BME280;53853;51.982;5.928;2023-04-30T03:40:50;102289.25;;;8.32;76.08
66945;BME280;53853;51.982;5.928;2023-04-30T03:43:21;102287.69;;;8.30;76.27
66945;BME280;53853;51.982;5.928;2023-04-30T03:45:53;102291.38;;;8.27;76.03
66945;BME280;53853;51.982;5.928;2023-04-30T03:48:25;102294.13;;;8.26;76.22
66945;BME280;53853;51.982;5.928;2023-04-30T03:50:54;102291.56;;;8.24;76.13
66945;BME280;53853;51.982;5.928;2023-04-30T03:53:24;102282.09;;;8.20;76.31
66945;BME280;53853;51.982;5.928;2023-04-30T03:55:55;102281.34;;;8.18;76.54
66945;BME280;53853;51.982;5.928;2023-04-30T03:58:25;102285.16;;;8.14;76.61
66945;BME280;53853;51.982;5.928;2023-04-30T04:00:58;102285.25;;;8.12;76.83
66945;BME280;53853;51.982;5.928;2023-04-30T04:03:28;102284.47;;;8.10;76.87
66945;BME280;53853;51.982;5.928;2023-04-30T04:05:58;102282.03;;;8.07;76.63
66945;BME280;53853;51.982;5.928;2023-04-30T04:08:28;102284.69;;;8.07;76.76
66945;BME280;53853;51.982;5.928;2023-04-30T04:10:58;102290.09;;;8.06;76.80
66945;BME280;53853;51.982;5.928;2023-04-30T04:13:28;102283.94;;;8.05;76.78
66945;BME280;53853;51.982;5.928;2023-04-30T04:16:01;102283.19;;;8.03;77.00
66945;BME280;53853;51.982;5.928;2023-04-30T04:18:31;102287.66;;;8.03;77.08
66945;BME280;53853;51.982;5.928;2023-04-30T04:21:01;102287.66;;;8.03;77.34
66945;BME280;53853;51.982;5.928;2023-04-30T04:23:31;102291.25;;;8.02;77.48
66945;BME280;53853;51.982;5.928;2023-04-30T04:26:01;102291.97;;;8.04;77.41
66945;BME280;53853;51.982;5.928;2023-04-30T04:28:31;102291.78;;;8.07;77.61
66945;BME280;53853;51.982;5.928;2023-04-30T04:31:05;102298.72;;;8.09;77.40
66945;BME280;53853;51.982;5.928;2023-04-30T04:33:35;102301.28;;;8.11;77.51
66945;BME280;53853;51.982;5.928;2023-04-30T04:36:05;102302.88;;;8.13;77.38
66945;BME280;53853;51.982;5.928;2023-04-30T04:38:35;102291.41;;;8.13;77.23
66945;BME280;53853;51.982;5.928;2023-04-30T04:41:05;102297.56;;;8.13;77.03
66945;BME280;53853;51.982;5.928;2023-04-30T04:43:35;102296.63;;;8.14;77.03
66945;BME280;53853;51.982;5.928;2023-04-30T04:46:07;102298.44;;;8.14;76.94
66945;BME280;53853;51.982;5.928;2023-04-30T04:48:37;102298.34;;;8.15;76.99
66945;BME280;53853;51.982;5.928;2023-04-30T04:51:08;102292.84;;;8.19;nan
66945;BME280;53853;51.982;5.928;2023-04-30T04:53:38;102297.06;;;8.21;77.24
66945;BME280;53853;51.982;5.928;2023-04-30T04:56:08;102301.25;;;8.25;77.16
66945;BME280;53853;51.982;5.928;2023-04-30T04:58:38;102293.09;;;8.28;77.13
66945;BME280;53853;51.982;5.928;2023-04-30T05:01:11;102294.66;;;8.31;77.08
66945;BME280;53853;51.982;5.928;2023-04-30T05:03:41;102301.59;;;8.33;77.22
66945;BME280;53853;51.982;5.928;2023-04-30T05:06:11;102303.75;;;8.41;77.40
66945;BME280;53853;51.982;5.928;2023-04-30T05:08:42;102303.94;;;8.52;77.58
66945;BME280;53853;51.982;5.928;2023-04-30T05:11:12;102297.00;;;8.64;77.44
66945;BME280;53853;51.982;5.928;2023-04-30T05:13:42;102302.44;;;8.76;76.95
66945;BME280;53853;51.982;5.928;2023-04-30T05:16:15;102311.59;;;8.84;76.62
66945;BME280;53853;51.982;5.928;2023-04-30T05:18:45;102305.22;;;8.87;76.11
66945;BME280;53853;51.982;5.928;2023-04-30T05:21:15;102308.63;;;8.89;75.84
66945;BME280;53853;51.982;5.928;2023-04-30T05:23:46;102297.78;;;8.92;75.83
66945;BME280;53853;51.982;5.928;2023-04-30T05:26:16;102302.91;;;8.95;75.87
66945;BME280;53853;51.982;5.928;2023-04-30T05:28:46;102303.66;;;8.97;75.90
66945;BME280;53853;51.982;5.928;2023-04-30T05:31:19;102302.81;;;8.97;75.46
66945;BME280;53853;51.982;5.928;2023-04-30T05:33:48;102304.72;;;8.95;75.77
66945;BME280;53853;51.982;5.928;2023-04-30T05:36:18;102303.94;;;8.93;75.52
66945;BME280;53853;51.982;5.928;2023-04-30T05:38:48;102307.38;;;8.95;75.41
66945;BME280;53853;51.982;5.928;2023-04-30T05:41:18;102311.63;;;8.97;75.40
66945;BME280;53853;51.982;5.928;2023-04-30T05:43:48;102310.47;;;9.01;75.58
66945;BME280;53853;51.982;5.928;2023-04-30T05:46:20;102308.25;;;9.08;75.68
66945;BME280;53853;51.982;5.928;2023-04-30T05:48:50;102310.81;;;9.10;75.49
66945;BME280;53853;51.982;5.928;2023-04-30T05:51:20;102311.66;;;9.10;75.11
66945;BME280;53853;51.982;5.928;2023-04-30T05:53:53;102311.94;;;9.05;74.63
66945;BME280;53853;51.982;5.928;2023-04-30T05:56:23;102309.66;;;9.14;74.93
66945;BME280;53853;51.982;5.928;2023-04-30T05:58:53;102311.91;;;9.20;74.67
66945;BME280;53853;51.982;5.928;2023-04-30T06:01:25;102312.75;;;9.20;74.03
66945;BME280;53853;51.982;5.928;2023-04-30T06:03:56;102312.97;;;9.30;74.61
66945;BME280;53853;51.982;5.928;2023-04-30T06:06:27;102313.38;;;9.37;74.19
66945;BME280;53853;51.982;5.928;2023-04-30T06:08:57;102310.31;;;9.43;74.02
66945;BME280;53853;51.982;5.928;2023-04-30T06:11:27;102307.63;;;9.43;73.70
66945;BME280;53853;51.982;5.928;2023-04-30T06:13:58;102307.22;;;9.49;73.87
66945;BME280;53853;51.982;5.928;2023-04-30T06:16:30;102317.22;;;9.58;73.97
66945;BME280;53853;51.982;5.928;2023-04-30T06:19:00;102324.47;;;9.56;73.61
66945;BME280;53853;51.982;5.928;2023-04-30T06:21:30;102327.66;;;9.61;73.35
66945;BME280;53853;51.982;5.928;2023-04-30T06:24:00;102324.47;;;9.69;73.35
66945;BME280;53853;51.982;5.928;2023-04-30T06:26:30;102327.03;;;9.71;73.18
66945;BME280;53853;51.982;5.928;2023-04-30T06:29:00;102337.00;;;9.80;73.65
66945;BME280;53853;51.982;5.928;2023-04-30T06:31:33;102343.50;;;9.89;73.51
66945;BME280;53853;51.982;5.928;2023-04-30T06:34:03;102339.78;;;9.91;72.84
66945;BME280;53853;51.982;5.928;2023-04-30T06:36:33;102333.78;;;10.01;73.25
66945;BME280;53853;51.982;5.928;2023-04-30T06:39:03;102331.66;;;10.06;72.85
66945;BME280;53853;51.982;5.928;2023-04-30T06:41:32;102322.88;;;10.16;72.85
66945;BME280;53853;51.982;5.928;2023-04-30T06:44:09;102329.47;;;10.24;72.64
66945;BME280;53853;51.982;5.928;2023-04-30T06:46:45;102326.19;;;10.33;72.75
66945;BME280;53853;51.982;5.928;2023-04-30T06:49:15;102331.19;;;10.38;72.28
66945;BME280;53853;51.982;5.928;2023-04-30T06:51:45;102332.75;;;10.40;71.86
66945;BME280;53853;51.982;5.928;2023-04-30T06:54:14;102335.63;;;10.50;72.18
66945;BME280;53853;51.982;5.928;2023-04-30T06:56:44;102332.84;;;10.51;71.74
66945;BME280;53853;51.982;5.928;2023-04-30T06:59:14;102328.03;;;10.57;71.54
66945;BME280;53853;51.982;5.928;2023-04-30T07:01:47;102339.63;;;10.56;71.11
66945;BME280;53853;51.982;5.928;2023-04-30T07:04:16;102338.56;;;10.58;70.65
66945;BME280;53853;51.982;5.928;2023-04-30T07:06:46;102332.47;;;10.56;70.27
66945;BME280;53853;51.982;5.928;2023-04-30T07:09:16;102334.91;;;10.59;70.59
66945;BME280;53853;51.982;5.928;2023-04-30T07:11:46;102334.34;;;10.67;71.01
66945;BME280;53853;51.982;5.928;2023-04-30T07:14:17;102340.72;;;10.77;71.21
66945;BME280;53853;51.982;5.928;2023-04-30T07:16:49;102334.94;;;10.83;70.73
66945;BME280;53853;51.982;5.928;2023-04-30T07:19:19;102339.44;;;10.94;71.09
66945;BME280;53853;51.982;5.928;2023-04-30T07:21:51;102336.09;;;11.03;69.69
66945;BME280;53853;51.982;5.928;2023-04-30T07:24:21;102337.22;;;11.12;69.74
66945;BME280;53853;51.982;5.928;2023-04-30T07:26:50;102336.75;;;11.18;69.72
66945;BME280;53853;51.982;5.928;2023-04-30T07:29:20;102346.69;;;11.16;68.51
66945;BME280;53853;51.982;5.928;2023-04-30T07:31:53;102344.00;;;11.16;68.23
66945;BME280;53853;51.982;5.928;2023-04-30T07:34:23;102347.09;;;11.23;68.50
66945;BME280;53853;51.982;5.928;2023-04-30T07:36:53;102339.34;;;11.31;68.96
66945;BME280;53853;51.982;5.928;2023-04-30T07:39:23;102338.00;;;11.37;68.24
66945;BME280;53853;51.982;5.928;2023-04-30T07:41:53;102333.91;;;11.44;68.78
66945;BME280;53853;51.982;5.928;2023-04-30T07:44:23;102342.03;;;11.54;68.83
66945;BME280;53853;51.982;5.928;2023-04-30T07:46:55;102339.00;;;11.58;68.24
66945;BME280;53853;51.982;5.928;2023-04-30T07:49:25;102337.69;;;11.64;68.47
66945;BME280;53853;51.982;5.928;2023-04-30T07:51:55;102343.53;;;11.69;67.99
66945;BME280;53853;51.982;5.928;2023-04-30T07:54:27;102343.88;;;11.76;68.39
66945;BME280;53853;51.982;5.928;2023-04-30T07:56:57;102340.72;;;11.82;68.57
66945;BME280;53853;51.982;5.928;2023-04-30T07:59:26;102347.41;;;11.88;68.04
66945;BME280;53853;51.982;5.928;2023-04-30T08:01:59;102346.09;;;11.93;68.07
66945;BME280;53853;51.982;5.928;2023-04-30T08:04:29;102352.91;;;11.98;67.35
66945;BME280;53853;51.982;5.928;2023-04-30T08:06:59;102351.09;;;11.98;67.16
66945;BME280;53853;51.982;5.928;2023-04-30T08:09:30;102351.44;;;12.05;67.56
66945;BME280;53853;51.982;5.928;2023-04-30T08:12:00;102350.13;;;12.10;67.62
66945;BME280;53853;51.982;5.928;2023-04-30T08:14:31;102353.25;;;12.16;67.95
66945;BME280;53853;51.982;5.928;2023-04-30T08:17:04;102353.59;;;12.22;67.63
66945;BME280;53853;51.982;5.928;2023-04-30T08:19:34;102356.16;;;12.24;67.07
66945;BME280;53853;51.982;5.928;2023-04-30T08:22:04;102344.38;;;12.26;67.67
66945;BME280;53853;51.982;5.928;2023-04-30T08:24:33;102347.78;;;12.28;67.54
66945;BME280;53853;51.982;5.928;2023-04-30T08:27:03;102344.59;;;12.35;67.67
66945;BME280;53853;51.982;5.928;2023-04-30T08:29:33;102345.94;;;12.40;67.33
66945;BME280;53853;51.982;5.928;2023-04-30T08:32:06;102349.69;;;12.49;67.46
66945;BME280;53853;51.982;5.928;2023-04-30T08:34:35;102340.44;;;12.53;66.88
66945;BME280;53853;51.982;5.928;2023-04-30T08:37:06;102343.84;;;12.55;66.51
66945;BME280;53853;51.982;5.928;2023-04-30T08:39:36;102345.88;;;12.63;66.70
66945;BME280;53853;51.982;5.928;2023-04-30T08:42:08;102342.56;;;12.71;66.57
66945;BME280;53853;51.982;5.928;2023-04-30T08:44:41;102341.94;;;12.78;66.14
66945;BME280;53853;51.982;5.928;2023-04-30T08:47:16;102340.69;;;12.82;65.48
66945;BME280;53853;51.982;5.928;2023-04-30T08:49:47;102343.94;;;12.86;64.75
66945;BME280;53853;51.982;5.928;2023-04-30T08:52:18;102346.88;;;12.83;63.46
66945;BME280;53853;51.982;5.928;2023-04-30T08:54:50;102335.22;;;12.84;64.62
66945;BME280;53853;51.982;5.928;2023-04-30T08:57:20;102338.47;;;12.87;63.81
66945;BME280;53853;51.982;5.928;2023-04-30T08:59:51;102340.06;;;12.90;64.15
66945;BME280;53853;51.982;5.928;2023-04-30T09:02:23;102333.34;;;12.96;64.19
66945;BME280;53853;51.982;5.928;2023-04-30T09:04:53;102333.34;;;12.96;63.26
66945;BME280;53853;51.982;5.928;2023-04-30T09:07:24;102335.38;;;13.03;63.19
66945;BME280;53853;51.982;5.928;2023-04-30T09:09:55;102330.50;;;13.09;63.38
66945;BME280;53853;51.982;5.928;2023-04-30T09:12:26;102335.09;;;13.07;62.16
66945;BME280;53853;51.982;5.928;2023-04-30T09:15:01;102328.66;;;13.09;62.74
66945;BME280;53853;51.982;5.928;2023-04-30T09:17:35;102331.41;;;13.19;62.60
66945;BME280;53853;51.982;5.928;2023-04-30T09:20:09;102330.88;;;13.25;62.49
66945;BME280;53853;51.982;5.928;2023-04-30T09:22:40;102324.56;;;13.26;61.49
66945;BME280;53853;51.982;5.928;2023-04-30T09:25:10;102329.16;;;13.24;61.30
66945;BME280;53853;51.982;5.928;2023-04-30T09:27:40;102332.19;;;13.31;61.64
66945;BME280;53853;51.982;5.928;2023-04-30T09:30:29;102325.34;;;13.38;62.29
66945;BME280;53853;51.982;5.928;2023-04-30T09:33:03;102322.53;;;13.39;62.29
66945;BME280;53853;51.982;5.928;2023-04-30T09:35:34;102328.81;;;13.50;62.49
66945;BME280;53853;51.982;5.928;2023-04-30T09:38:05;102322.91;;;13.56;62.60
66945;BME280;53853;51.982;5.928;2023-04-30T09:40:35;102329.72;;;13.60;61.62
66945;BME280;53853;51.982;5.928;2023-04-30T09:43:06;102328.22;;;13.67;60.85
66945;BME280;53853;51.982;5.928;2023-04-30T09:45:43;102325.53;;;13.67;60.78
66945;BME280;53853;51.982;5.928;2023-04-30T09:48:19;102323.41;;;13.71;61.29
66945;BME280;53853;51.982;5.928;2023-04-30T09:50:50;102325.56;;;13.77;61.27
66945;BME280;53853;51.982;5.928;2023-04-30T09:53:20;102319.28;;;13.88;61.38
66945;BME280;53853;51.982;5.928;2023-04-30T09:55:51;102317.88;;;13.93;61.73
66945;BME280;53853;51.982;5.928;2023-04-30T09:58:21;102314.63;;;14.00;61.22
66945;BME280;53853;51.982;5.928;2023-04-30T10:00:52;102316.91;;;14.04;60.92
66945;BME280;53853;51.982;5.928;2023-04-30T10:03:26;102310.00;;;14.11;59.71
66945;BME280;53853;51.982;5.928;2023-04-30T10:05:56;102313.25;;;14.05;58.88
66945;BME280;53853;51.982;5.928;2023-04-30T10:08:29;102306.47;;;14.01;57.66
66945;BME280;53853;51.982;5.928;2023-04-30T10:11:03;102300.84;;;14.04;58.52
66945;BME280;53853;51.982;5.928;2023-04-30T10:13:39;102294.78;;;14.12;59.52
66945;BME280;53853;51.982;5.928;2023-04-30T10:16:14;102294.38;;;14.17;58.89
66945;BME280;53853;51.982;5.928;2023-04-30T10:18:52;102295.91;;;14.19;56.97
66945;BME280;53853;51.982;5.928;2023-04-30T10:21:24;102291.69;;;14.17;56.78
66945;BME280;53853;51.982;5.928;2023-04-30T10:23:55;102288.75;;;14.20;56.67
66945;BME280;53853;51.982;5.928;2023-04-30T10:26:28;102286.50;;;14.25;57.14
66945;BME280;53853;51.982;5.928;2023-04-30T10:29:00;102292.97;;;14.32;57.58
66945;BME280;53853;51.982;5.928;2023-04-30T10:31:31;102288.47;;;14.32;56.40
66945;BME280;53853;51.982;5.928;2023-04-30T10:34:12;102285.09;;;14.40;57.24
66945;BME280;53853;51.982;5.928;2023-04-30T10:36:46;102276.34;;;14.38;55.74
66945;BME280;53853;51.982;5.928;2023-04-30T10:39:18;102279.88;;;14.48;56.70
66945;BME280;53853;51.982;5.928;2023-04-30T10:41:49;102282.84;;;14.55;57.19
66945;BME280;53853;51.982;5.928;2023-04-30T10:44:21;102279.31;;;14.55;56.70
66945;BME280;53853;51.982;5.928;2023-04-30T10:46:58;102278.66;;;14.62;56.31
66945;BME280;53853;51.982;5.928;2023-04-30T10:49:31;102273.84;;;14.66;56.18
66945;BME280;53853;51.982;5.928;2023-04-30T10:52:03;102278.66;;;14.72;56.49
66945;BME280;53853;51.982;5.928;2023-04-30T10:54:34;102273.13;;;14.83;56.02
66945;BME280;53853;51.982;5.928;2023-04-30T10:57:12;102266.78;;;14.84;55.97
66945;BME280;53853;51.982;5.928;2023-04-30T10:59:50;102259.16;;;14.90;55.61
66945;BME280;53853;51.982;5.928;2023-04-30T11:02:20;102252.91;;;14.89;55.67
66945;BME280;53853;51.982;5.928;2023-04-30T11:05:12;102256.03;;;14.94;56.38
66945;BME280;53853;51.982;5.928;2023-04-30T11:07:47;102249.06;;;15.01;56.68
66945;BME280;53853;51.982;5.928;2023-04-30T11:10:20;102244.88;;;14.99;54.63
66945;BME280;53853;51.982;5.928;2023-04-30T11:12:51;102245.28;;;15.04;55.86
66945;BME280;53853;51.982;5.928;2023-04-30T11:15:25;102247.66;;;15.07;55.40
66945;BME280;53853;51.982;5.928;2023-04-30T11:17:56;102236.19;;;15.05;55.53
66945;BME280;53853;51.982;5.928;2023-04-30T11:20:29;102235.63;;;15.11;55.95
66945;BME280;53853;51.982;5.928;2023-04-30T11:23:10;102236.75;;;15.18;55.57
66945;BME280;53853;51.982;5.928;2023-04-30T11:25:41;102238.16;;;15.23;54.53
66945;BME280;53853;51.982;5.928;2023-04-30T11:28:13;102233.03;;;15.29;54.92
66945;BME280;53853;51.982;5.928;2023-04-30T11:30:51;102231.50;;;15.27;54.27
66945;BME280;53853;51.982;5.928;2023-04-30T11:33:23;102223.81;;;15.32;55.44
66945;BME280;53853;51.982;5.928;2023-04-30T11:35:57;102225.94;;;15.38;55.95
66945;BME280;53853;51.982;5.928;2023-04-30T11:38:28;102214.44;;;15.46;54.48
66945;BME280;53853;51.982;5.928;2023-04-30T11:40:58;102211.63;;;15.47;54.44
66945;BME280;53853;51.982;5.928;2023-04-30T11:43:29;102210.19;;;15.53;55.07
66945;BME280;53853;51.982;5.928;2023-04-30T11:46:08;102208.34;;;15.53;54.34
66945;BME280;53853;51.982;5.928;2023-04-30T11:48:40;102204.75;;;15.63;55.24
66945;BME280;53853;51.982;5.928;2023-04-30T11:51:17;102197.78;;;15.70;54.68
66945;BME280;53853;51.982;5.928;2023-04-30T11:53:49;102198.34;;;15.73;54.31
66945;BME280;53853;51.982;5.928;2023-04-30T11:56:19;102189.41;;;15.73;53.93
66945;BME280;53853;51.982;5.928;2023-04-30T11:58:51;102194.91;;;15.81;54.01
66945;BME280;53853;51.982;5.928;2023-04-30T12:01:24;102195.84;;;15.90;54.40
66945;BME280;53853;51.982;5.928;2023-04-30T12:03:56;102182.03;;;16.03;54.38
66945;BME280;53853;51.982;5.928;2023-04-30T12:06:29;102179.41;;;16.11;53.96
66945;BME280;53853;51.982;5.928;2023-04-30T12:09:00;102173.72;;;16.14;53.85
66945;BME280;53853;51.982;5.928;2023-04-30T12:11:34;102178.81;;;16.17;53.49
66945;BME280;53853;51.982;5.928;2023-04-30T12:14:05;102177.13;;;16.16;53.76
66945;BME280;53853;51.982;5.928;2023-04-30T12:16:41;102173.44;;;16.17;53.58
66945;BME280;53853;51.982;5.928;2023-04-30T12:19:12;102183.88;;;16.20;53.46
66945;BME280;53853;51.982;5.928;2023-04-30T12:21:45;102173.19;;;16.28;53.72
66945;BME280;53853;51.982;5.928;2023-04-30T12:24:17;102173.25;;;16.37;54.22
66945;BME280;53853;51.982;5.928;2023-04-30T12:26:52;102169.78;;;16.44;54.19
66945;BME280;53853;51.982;5.928;2023-04-30T12:29:23;102161.97;;;16.51;54.35
66945;BME280;53853;51.982;5.928;2023-04-30T12:31:53;102164.84;;;16.58;54.23
66945;BME280;53853;51.982;5.928;2023-04-30T12:34:26;102165.69;;;16.58;51.96
66945;BME280;53853;51.982;5.928;2023-04-30T12:37:01;102156.94;;;16.56;51.75
66945;BME280;53853;51.982;5.928;2023-04-30T12:39:33;102166.38;;;16.60;51.11
66945;BME280;53853;51.982;5.928;2023-04-30T12:42:04;102162.91;;;16.68;52.08
66945;BME280;53853;51.982;5.928;2023-04-30T12:44:42;102164.97;;;16.74;52.34
66945;BME280;53853;51.982;5.928;2023-04-30T12:47:14;102163.50;;;16.80;52.68
66945;BME280;53853;51.982;5.928;2023-04-30T12:49:45;102153.47;;;16.90;53.46
66945;BME280;53853;51.982;5.928;2023-04-30T12:52:17;102146.97;;;17.01;53.71
66945;BME280;53853;51.982;5.928;2023-04-30T12:54:52;102147.13;;;16.99;48.57
66945;BME280;53853;51.982;5.928;2023-04-30T12:57:22;102152.56;;;17.08;50.77
66945;BME280;53853;51.982;5.928;2023-04-30T12:59:59;102147.38;;;17.14;50.46
66945;BME280;53853;51.982;5.928;2023-04-30T13:02:31;102139.84;;;17.18;50.12
66945;BME280;53853;51.982;5.928;2023-04-30T13:05:01;102140.84;;;17.25;51.02
66945;BME280;53853;51.982;5.928;2023-04-30T13:07:39;102141.03;;;17.32;49.57
66945;BME280;53853;51.982;5.928;2023-04-30T13:10:09;102131.28;;;17.23;47.49
66945;BME280;53853;51.982;5.928;2023-04-30T13:12:39;102136.84;;;17.29;50.31
66945;BME280;53853;51.982;5.928;2023-04-30T13:15:10;102138.91;;;17.35;50.63
66945;BME280;53853;51.982;5.928;2023-04-30T13:17:39;102133.03;;;17.40;49.57
66945;BME280;53853;51.982;5.928;2023-04-30T13:20:10;102132.84;;;17.42;48.48